Terminal Aerodrome Forecast
Issued by NWS

Home | Current Version | Previous Version | Text Only | Print | Product List | Glossary On
Versions: 1 2 3 4 5 6 7 8 9 10 11 12 13 14 15 16 17 18 19 20 21 22
709
FTPA31 PHFO 240310 AAB
TAFHNY
TAF AMD
PHNY 240310Z 2403/2424 04016G22KT P6SM SCT025
     FM240600 VRB06KT P6SM VCSH SCT010 BKN035
     FM242000 04011G18KT P6SM SCT010 SCT025=

USA.gov is the U.S. government's official web portal to all federal, state and local government web resources and services.